MET: Información y Pronóstico Aeronáutico

///////////////////////////////////////////////////////////////////////////////////////////////////////////////////////////////////////////////////////////////////////////////////////////////////////////////////////////////////////////////

Member for

1 año 10 meses
Enviado por meteorologia el Jue, 23/11/2017 - 11:39
2/6

02 DE JUNIO 2020

INFORMACION METEOROLOGICA AERONAUTICA (METAR) 18:00 UTC

Aeropuerto AEROPARQUE J. NEWBERY

02 - 18:00               METAR SABE 021800Z 02005KT CAVOK 14/08 Q1019 NOSIG =

Aeropuerto BAHIA BLANCA

02 - 18:00               METAR SAZB 021800Z 29008KT CAVOK 15/05 Q1014 =

Aeropuerto BARILOCHE

02 - 18:00               METAR SAZS 021800Z 29007KT 9999 -RA SCT020 BKN029 06/03 Q1015 =

Aeropuerto CATAMARCA

02 - 18:00               METAR SANC 021800Z 00000KT CAVOK 22/05 Q1013 =

Aeropuerto CHAPELCO

02 - 18:00               METAR SAZY 021800Z 25012KT 9999 SCT042 10/01 Q1013 =

Aeropuerto COMODORO RIVADAVIA

02 - 18:00               METAR SAVC 021800Z 23006KT 160V260 9999 FEW040 11/01 Q1018 =

Aeropuerto CORDOBA

02 - 18:00               METAR SACO 021800Z 07014KT CAVOK 20/M02 Q1015 NOSIG =

Aeropuerto CORRIENTES

02 - 18:00               METAR SARC 021800Z 14007KT CAVOK 18/03 Q1019 =

Aeropuerto EL CALAFATE

02 - 18:00               METAR SAWC 021800Z 27016KT CAVOK 06/M00 Q1015 =

Aeropuerto EL PALOMAR

02 - 18:00               METAR SADP 021800Z 31008KT CAVOK 15/05 Q1019 =

Aeropuerto ESQUEL

02 - 18:00               METAR SAVE 021800Z 23007KT 9999 BKN030 07/01 Q1015 =

Aeropuerto EZEIZA

02 - 18:00               METAR SAEZ 021800Z 32008KT CAVOK 15/06 Q1018 NOSIG =

Aeropuerto FORMOSA

02 - 18:00               METAR SARF 021800Z 27003KT CAVOK 19/05 Q1018 =

Aeropuerto IGUAZU/CATARATAS

02 - 18:00               METAR SARI 021800Z 18006KT CAVOK 18/08 Q1017 =

Aeropuerto JUJUY

02 - 18:00               METAR SASJ 021800Z 07006KT CAVOK 18/08 Q1017 =

Aeropuerto LA RIOJA

02 - 18:00               METAR SANL 021800Z 09006KT CAVOK 19/06 Q1014 =

Aeropuerto MALARGUE

02 - 18:00               METAR SAMM 021800Z 05005KT 9999 SCT030 BKN090 12/02 Q1015 =

Aeropuerto MAR DEL PLATA

02 - 18:00               METAR SAZM 021800Z 34015KT CAVOK 13/06 Q1015 =

Aeropuerto MENDOZA

02 - 18:00               METAR SAME 021800Z 05004KT CAVOK 16/01 Q1013 =

Aeropuerto MORON

02 - 18:00               METAR SADM 021800Z 32008KT CAVOK 15/06 Q1018 =

Aeropuerto NEUQUEN

02 - 18:00               METAR SAZN 021800Z 00000KT CAVOK 12/06 Q1015 =

Aeropuerto PARANA

02 - 18:00               METAR SAAP 021800Z 36006KT CAVOK 16/05 Q1019 =

Aeropuerto POSADAS

02 - 18:00               METAR SARP 021800Z 16005KT CAVOK 18/05 Q1019 =

Aeropuerto PUERTO MADRYN

02 - 18:00               METAR SAVY 021800Z 16015KT 9999 FEW012 10/05 Q1014 =

Aeropuerto RECONQUISTA

02 - 18:00               METAR SATR 021800Z 25003KT CAVOK 18/06 Q1019 =

Aeropuerto RESISTENCIA

02 - 18:00               METAR SARE 021800Z 13004KT 070V190 CAVOK 17/02 Q1019 =

Aeropuerto RIO CUARTO

02 - 17:00               METAR SAOC 021700Z 36014KT CAVOK 19/M03 Q1015 =

Aeropuerto RIO GALLEGOS

02 - 18:00               METAR SAWG 021800Z 23023G35KT 9999 FEW015 06/M01 Q1011 =

Aeropuerto RIO GRANDE

02 - 18:00               METAR SAWE 021800Z 27017KT CAVOK 06/M02 Q1005 =

Aeropuerto ROSARIO

02 - 18:00               METAR SAAR 021800Z 36008KT CAVOK 16/03 Q1018 =

Aeropuerto SALTA

02 - 18:00               METAR SASA 021800Z VRB03KT CAVOK 19/01 Q1017 =

Aeropuerto SAN FERNANDO

02 - 18:00               METAR SADF 021800Z 27006KT CAVOK 15/06 Q1019 =

Aeropuerto SAN JUAN

02 - 18:00               METAR SANU 021800Z 00000KT CAVOK 19/M01 Q1012 =

Aeropuerto SAN LUIS

02 - 18:00               METAR SAOU 021800Z 32006KT CAVOK 19/11 Q1014 =

Aeropuerto SAN RAFAEL

02 - 18:00               METAR SAMR 021800Z 09008KT 9999 SCT040 SCT060 18/00 Q1012 =

Aeropuerto SANTA ROSA

02 - 18:00               METAR SAZR 021800Z 27004KT CAVOK 14/07 Q1015 =

Aeropuerto SANTIAGO DEL ESTERO

02 - 18:00               METAR SANE 021800Z 07006KT CAVOK 20/M01 Q1017 =

Aeropuerto SAUCE VIEJO

02 - 18:00               METAR SAAV 021800Z 07006KT CAVOK 17/06 Q1018 =

Aeropuerto TANDIL

02 - 18:00               METAR SAZT 021800Z 32012KT CAVOK 13/04 Q1015 =

Aeropuerto TRELEW

02 - 18:00               METAR SAVT 021800Z 20010KT 9999 BKN030 10/03 Q1016 =

Aeropuerto TUCUMAN

02 - 18:00               METAR SANT 021800Z 00000KT CAVOK 20/06 Q1016 =

Aeropuerto USHUAIA

02 - 18:00               METAR SAWH 021800Z 23031KT 9999 DZ BKN025 SCT100 03/M00 Q1003 =

Aeropuerto VIEDMA

02 - 18:00               METAR SAVV 021800Z 23014KT CAVOK 15/08 Q1012 =

Aeropuerto VILLA REYNOLDS

02 - 18:00               METAR SAOR 021800Z 05012KT CAVOK 22/02 Q1014 =

 PRONOSTICO DE AERODROMO (TAF) 17:00 UTC

Estación AEROPARQUE J. NEWBERY

02 - 17:00               TAF SABE 021700Z 0218/0318 02005KT CAVOK TX15/0218Z TN05/0311Z BECMG 0306/0308 34005KT BECMG 0317/0318 09005KT =

Estación BAHIA BLANCA

02 - 17:00               TAF SAZB 021700Z 0218/0318 30010G20KT CAVOK TX16/0218Z TN08/0310Z BECMG 0300/0303 18005KT 9999 BKN030 PROB30 0306/0312 VRB05KT 8000 RADZ SCT020 BKN040 BECMG 0313/0315 09010KT 9999 SCT020 BKN050 =

Estación BARILOCHE

02 - 17:00               TAF SAZS 021700Z 0218/0318 29010KT 8000 -RA SCT025 BKN040 TX07/0218Z TNM01/0311Z TEMPO 0219/0301 6000 RA BKN015 BKN030 BECMG 0305/0308 18003KT 7000 -RASN SCT010 BKN015 BECMG 0314/0316 VRB03KT 9999 SCT015 BKN020 =

Estación CATAMARCA

02 - 17:00               TAF SANC 021700Z 0218/0318 36015KT CAVOK TX23/0319Z TN08/0310Z BECMG 0220/0223 02020G30KT 9999 SCT050 BECMG 0309/0312 VRB03KT 8000 BKN045 =

Estación CHAPELCO

02 - 17:00               TAF SAZY 021700Z 0218/0318 27015KT 9999 SCT020 TX09/0218Z TN00/0312Z BECMG 0218/0221 CAVOK BECMG 0302/0304 VRB05KT 8000 -DZ BKN010 PROB30 0306/0312 09010KT 7000 RADZ BKN008 OVC030 BECMG 0313/0316 9999 SCT015 BKN050 =

Estación COMODORO RIVADAVIA

02 - 17:00               TAF SAVC 021700Z 0218/0318 23005KT CAVOK TX13/0318Z TN04/0309Z BECMG 0221/0223 29010KT BECMG 0314/0316 32020G35KT =

Estación CORDOBA

02 - 17:00               TAF SACO 021700Z 0218/0318 05010G20KT CAVOK TX16/0318Z TN04/0310Z BECMG 0221/0223 02015KT BECMG 0303/0306 36015KT BECMG 0308/0311 02005KT 5000 BR SCT020 BECMG 0312/0315 05010KT 9999 NSW BKN025 =

Estación CORRIENTES

02 - 17:00               TAF SARC 021700Z 0218/0318 09005KT CAVOK TX17/0219Z TN09/0310Z PROB30 0309/0311 VRB03KT 3000 BR NSC =

Estación EL CALAFATE

02 - 17:00               TAF SAWC 021700Z 0218/0318 27015G25KT CAVOK TX08/0219Z TNM00/0311Z BECMG 0312/0314 34015G35KT =

Estación EL PALOMAR

02 - 17:00               TAF SADP 021700Z 0218/0318 32010KT CAVOK TX16/0318Z TN06/0310Z BECMG 0300/0306 36005KT PROB30 0306/0312 VRB03KT 2000 MIFG BECMG 0313/0315 CAVOK =

Estación ESQUEL

02 - 17:00               TAF SAVE 021700Z 0218/0318 23005KT 9999 SCT030 TX08/0218Z TNM03/0310Z BECMG 0319/0321 02005KT 4000 RABR BKN020 OVC045 BECMG 0301/0303 VRB03KT 0800 FZFG OVC015 BECMG 0312/0314 29010KT CAVOK =

Estación EZEIZA

02 - 17:00               TAF SAEZ 021700Z 0218/0318 32010KT CAVOK TX16/0318Z TN06/0310Z BECMG 0300/0306 36005KT PROB30 0306/0312 VRB03KT 2000 MIFG BECMG 0313/0315 CAVOK =

Estación FORMOSA

02 - 17:00               TAF SARF 021700Z 0218/0318 18005KT CAVOK TX19/0219Z TN09/0310Z PROB30 0309/0311 VRB03KT 3000 BR NSC =

Estación IGUAZU/CATARATAS

02 - 17:00               TAF SARI 021700Z 0218/0318 20005KT CAVOK TX17/0219Z TN08/0310Z BECMG 0301/0303 00000KT 0500 FG BKN008 BECMG 0310/0312 VRB03KT 9999 SCT020 =

Estación JUJUY

02 - 17:00               TAF SASJ 021700Z 0218/0318 07010KT 9999 SCT020 TX17/0318Z TN05/0310Z BECMG 0300/0303 28005KT BECMG 0308/0311 VRB03KT 3500 BR SCT010 BKN020 BECMG 0312/0315 05015KT 9999 NSW BKN025 =

Estación LA RIOJA

02 - 17:00               TAF SANL 021700Z 0218/0318 VRB03KT CAVOK TX18/0318Z TN05/0310Z BECMG 0300/0303 20010KT 9999 SCT045 BECMG 0312/0315 20015KT 9999 BKN045 =

Estación MAR DEL PLATA

02 - 17:00               TAF SAZM 021700Z 0218/0318 32015G25KT CAVOK TX13/0318Z TN06/0310Z BECMG 0303/0306 25010KT 9999 SCT020 BKN030 BECMG 0313/0316 16010KT 6000 RA BKN020 BKN050 =

Estación MENDOZA

02 - 17:00               TAF SAME 021700Z 0218/0318 05005KT 9999 FEW040 SCT100 TX17/0220Z TN04/0310Z BECMG 0300/0302 18010KT BECMG 0305/0307 18020KT BECMG 0312/0314 18015KT 6000 DZRA SCT020 OVC050 =

Estación NEUQUEN

02 - 17:00               TAF SAZN 021700Z 0218/0318 00000KT 5000 BR SCT035 BKN100 TX12/0218Z TN01/0311Z TEMPO 0219/0304 VRB03KT 7000 -RA BKN020 BKN040 BECMG 0304/0306 14015G25KT 9999 BKN012 BKN080 BECMG 0314/0316 12015KT 9999 BKN020 =

Estación PARANA

02 - 17:00               TAF SAAP 021700Z 0218/0318 02010KT CAVOK TX18/0318 TN04/0310Z BECMG 0222/0301 02004KT PROB30 0306/0312 2000 MIFG TEMPO 0310/0312 0800 FG BECMG 0313/0314 02010KT CAVOK =

Estación POSADAS

02 - 17:00               TAF SARP 021700Z 0218/0318 11005KT CAVOK TX17/0219Z TN08/0310Z PROB30 0308/0311 00000KT 0500 FG BKN008 =

Estación RESISTENCIA

02 - 17:00               TAF SARE 021700Z 0218/0318 09005KT CAVOK TX17/0219Z TN09/0310Z PROB30 0309/0311 VRB03KT 3000 BR NSC =

Estación RIO CUARTO

02 - 17:00               TAF SAOC 021700Z 0218/0318 36010KT CAVOK TX16/0318Z TN03/0311Z BECMG 0220/0223 05015KT 9999 SCT035 BKN060 BECMG 0300/0303 36015G20KT BECMG 0305/0308 02010KT 9999 BKN025 OVC060 PROB40 0308/0311 VRB03KT 5000 BR BECMG 0312/0315 36010KT 9999 NSW BKN025 OVC060 =

Estación RIO GALLEGOS

02 - 17:00               TAF SAWG 021700Z 0218/0318 25020G35KT CAVOK TX07/0218Z TNM01/0311Z BECMG 0223/0301 29030G40KT BECMG 0310/0312 36015KT 9999 -DZSN SCT030 BKN060 OVC090 =

Estación RIO GRANDE

02 - 17:00               TAF SAWE 021700Z 0218/0318 25015KT CAVOK TX06/0218Z TN00/0311Z BECMG 0219/0221 27020G30KT BECMG 0306/0308 29025G40KT 7000 RABR BKN010 OVC025 BECMG 0315/0317 34030G50KT 9999 BKN030 OVC060 =

Estación ROSARIO

02 - 17:00               TAF SAAR 021700Z 0218/0318 36010KT CAVOK TX18/0318Z TN03/0311Z BECMG 0220/0223 04005KT BECMG 0308/0310 08003KT 5000 BR NSC BECMG 0312/0314 09010KT CAVOK =

Estación SALTA

02 - 17:00               TAF SASA 021700Z 0218/0318 05015KT 9999 SCT025 TX16/0318Z TN03/0310Z BECMG 0300/0303 VRB03KT BECMG 0308/0311 VRB03KT 3500 BR SCT010 BKN020 BECMG 0312/0315 9999 NSW BKN025 =

Estación SAN FERNANDO

02 - 17:00               TAF SADF 021700Z 0218/0318 33010KT CAVOK TX16/0318Z TN06/0310Z TEMPO 0306/0312 5000 BR NSC BECMG 0316/0318 10010KT 9999 SCT020 SCT100 =

Estación SAN JUAN

02 - 17:00               TAF SANU 021700Z 0218/0318 36010KT CAVOK TX20/0220Z TN02/0310Z BECMG 0309/0311 18010G25KT 9999 BKN040 SCT100 =

Estación SAN LUIS

02 - 17:00               TAF SAOU 021700Z 0218/0318 34010KT 9999 FEW030 SCT100 TX19/0219Z TN03/0309Z BECMG 0311/0313 18010KT 9999 BKN015 OVC050 =

Estación SAN RAFAEL

02 - 17:00               TAF SAMR 021700Z 0218/0318 18005KT 9999 FEW040 SCT100 TX18/0219Z TN03/0310Z BECMG 0304/0306 18020KT BECMG 0311/0313 18015KT 1500 +DZRA STC015 OVC040 =

Estación SANTA ROSA

02 - 17:00               TAF SAZR 021700Z 0218/0318 30005KT 9999 BKN050 TX16/0218Z TN06/0212Z BECMG 0221/0300 05005KT 9999 SCT030 BKN050 PROB30 0306/0312 14015KT 8000 -RADZ SCT020 BKN040 BECMG 0315/0318 9000 DZ BKN050 =

Estación SANTIAGO DEL ESTERO

02 - 17:00               TAF SANE 021700Z 0218/0318 02010KT CAVOK TX22/0318Z TN06/0310Z BECMG 0220/0223 05015G20KT BECMG 0303/0306 02010KT 9999 SCT035 PROB40 0308/0311 VRB03KT 5000 BR SCT030 =

Estación SAUCE VIEJO

02 - 17:00               TAF SAAV 021700Z 0218/0318 02010KT CAVOK TX18/0318 TN05/0310Z BECMG 0222/0301 02004KT PROB30 0306/0312 2000 MIFG TEMPO 0310/0312 0800 FG BECMG 0313/0314 02010KT CAVOK =

Estación TERMAS DE RIO HONDO

02 - 17:00               TAF SANR 021700Z 0218/0318 NIL =

Estación TRELEW

02 - 17:00               TAF SAVT 021700Z 0218/0318 20010KT -DZ 9999 BKN020 OVC040 TX12/0215Z TN02/0310Z BECMG 0305/0307 27010KT CAVOK BECMG 0313/0315 34015G25KT =

Estación TUCUMAN

02 - 17:00               TAF SANT 021700Z 0218/0318 05010KT CAVOK TX21/0318Z TN05/0310Z BECMG 0300/0303 VRB03KT 9999 SCT020 BECMG 0308/0311 5000 BR SCT020 BKN060 0315/0318 20005KT 9999 NSW BKN060 =

Estación USHUAIA

02 - 17:00               TAF SAWH 021700Z 0218/0318 23030G40KT 9999 DZ BKN035 OVC060 TX05/0218Z TNM02/0306Z BECMG 0219/0221 29005KT 3000 RABR BKN006 OVC020 BECMG 0304/0306 36010KT 1000 FGDZ SCT025 OVC040 BECMG 0310/0312 02010KT 4000 RABR BKN008 OVC012 =

Estación VIEDMA

02 - 17:00               TAF SAVV 021700Z 0218/0318 27010KT CAVOK TX17/0218Z TN05/0310Z TEMPO 0219/0221 20015KT BECMG 0223/0301 18010KT 6000 BRDZ SCT010 BKN030TCU OVC040 BECMG 0310/0312 09010KT 9999 VCDZ BKN035 =